createdAt,value
2019-02-20T00:00:17.024Z,40.20
2019-02-20T00:02:44.466Z,40.67
2019-02-20T00:05:11.976Z,45.40
2019-02-20T00:07:39.483Z,51.37
2019-02-20T00:10:07.148Z,44.93
2019-02-20T00:12:34.605Z,48.53
2019-02-20T00:15:02.115Z,48.87
2019-02-20T00:17:29.580Z,46.00
2019-02-20T00:19:57.066Z,41.87
2019-02-20T00:22:24.558Z,44.13
2019-02-20T00:24:52.017Z,40.93
2019-02-20T00:27:19.464Z,47.00
2019-02-20T00:29:46.947Z,45.60
2019-02-20T00:32:14.408Z,53.20
2019-02-20T00:34:41.888Z,46.87
2019-02-20T00:37:09.477Z,47.27
2019-02-20T00:39:36.947Z,43.67
2019-02-20T00:42:04.456Z,31.83
2019-02-20T00:44:46.848Z,36.57
2019-02-20T00:47:24.141Z,38.37
2019-02-20T00:49:51.613Z,34.63
2019-02-20T00:52:25.674Z,31.07
2019-02-20T00:54:53.160Z,35.90
2019-02-20T00:57:20.652Z,36.63
2019-02-20T00:59:48.173Z,31.63
2019-02-20T01:02:15.643Z,33.57
2019-02-20T01:04:43.339Z,34.80
2019-02-20T01:07:10.826Z,29.50
2019-02-20T01:09:38.268Z,32.23
2019-02-20T01:12:06.349Z,28.23
2019-02-20T01:14:33.817Z,26.80
2019-02-20T01:17:02.687Z,29.03
2019-02-20T01:19:30.648Z,25.53
2019-02-20T01:21:58.118Z,30.90
2019-02-20T01:24:25.579Z,26.07
2019-02-20T01:26:53.059Z,27.43
2019-02-20T01:29:20.519Z,35.87
2019-02-20T01:31:48.003Z,40.73
2019-02-20T01:34:15.485Z,37.07
2019-02-20T01:36:42.933Z,37.07
2019-02-20T01:39:10.431Z,42.00
2019-02-20T01:41:37.931Z,64.53
2019-02-20T01:44:05.418Z,48.90
2019-02-20T01:46:32.881Z,44.47
2019-02-20T01:49:00.363Z,58.77
2019-02-20T01:51:27.816Z,51.47
2019-02-20T01:53:55.323Z,57.63
2019-02-20T01:56:22.770Z,39.07
2019-02-20T01:58:50.221Z,38.83
2019-02-20T02:01:17.933Z,53.13
2019-02-20T02:03:46.469Z,33.57
2019-02-20T02:06:13.926Z,29.73
2019-02-20T02:08:41.419Z,24.63
2019-02-20T02:11:08.919Z,23.27
2019-02-20T02:13:36.387Z,23.80
2019-02-20T02:16:03.891Z,23.80
2019-02-20T02:18:31.355Z,25.73
2019-02-20T02:20:58.861Z,25.67
2019-02-20T02:23:26.351Z,26.63
2019-02-20T02:25:53.855Z,20.83
2019-02-20T02:28:21.332Z,18.63
2019-02-20T02:30:48.787Z,24.13
2019-02-20T02:33:16.321Z,27.03
2019-02-20T02:35:43.810Z,24.67
2019-02-20T02:38:11.289Z,26.40
2019-02-20T02:40:38.817Z,31.50
2019-02-20T02:43:06.279Z,30.80
2019-02-20T02:49:01.864Z,38.90
2019-02-20T02:51:29.408Z,34.17
2019-02-20T02:53:56.960Z,87.97
2019-02-20T02:56:24.432Z,98.93
2019-02-20T02:58:51.952Z,115.77
2019-02-20T03:01:19.417Z,147.77
2019-02-20T03:03:47.335Z,107.47
2019-02-20T03:06:14.809Z,58.03
2019-02-20T03:08:42.303Z,61.20
2019-02-20T03:11:09.813Z,50.63
2019-02-20T03:13:37.276Z,74.30
2019-02-20T03:16:04.776Z,51.50
2019-02-20T03:18:32.293Z,43.67
2019-02-20T03:20:59.795Z,76.67
2019-02-20T03:23:27.269Z,86.00
2019-02-20T03:25:54.760Z,64.23
2019-02-20T03:28:22.218Z,47.20
2019-02-20T03:30:49.718Z,47.03
2019-02-20T03:33:17.180Z,46.60
2019-02-20T03:35:44.733Z,42.80
2019-02-20T03:38:12.191Z,38.97
2019-02-20T03:40:39.662Z,31.80
2019-02-20T03:43:07.131Z,33.70
2019-02-20T03:45:34.629Z,29.93
2019-02-20T03:48:02.091Z,52.77
2019-02-20T03:50:29.588Z,32.87
2019-02-20T03:52:57.085Z,79.57
2019-02-20T03:55:24.660Z,44.33
2019-02-20T03:57:52.129Z,64.77
2019-02-20T04:00:19.635Z,49.53
2019-02-20T04:02:47.127Z,59.10
2019-02-20T04:05:14.605Z,56.83
2019-02-20T04:07:42.086Z,83.00
2019-02-20T04:10:09.601Z,78.47
2019-02-20T04:12:37.144Z,74.43
2019-02-20T04:15:04.903Z,78.67
2019-02-20T04:17:32.409Z,59.23
2019-02-20T04:19:59.870Z,51.53
2019-02-20T04:22:27.372Z,49.63
2019-02-20T04:24:54.859Z,66.30
2019-02-20T04:27:22.308Z,71.30
2019-02-20T04:29:49.790Z,51.77
2019-02-20T04:32:17.257Z,51.40
2019-02-20T04:34:44.761Z,47.03
2019-02-20T04:37:12.269Z,48.23
2019-02-20T04:39:39.732Z,50.43
2019-02-20T04:42:07.211Z,43.33
2019-02-20T04:44:34.686Z,71.13
2019-02-20T04:47:02.187Z,70.13
2019-02-20T04:49:29.663Z,111.70
2019-02-20T04:51:57.146Z,68.00
2019-02-20T04:54:24.593Z,63.60
2019-02-20T04:56:52.051Z,126.37
2019-02-20T04:59:19.543Z,56.93
2019-02-20T05:01:47.006Z,86.10
2019-02-20T05:04:14.515Z,72.77
2019-02-20T05:06:41.967Z,60.13
2019-02-20T05:09:09.474Z,80.07
2019-02-20T05:11:37.033Z,91.07
2019-02-20T05:14:04.517Z,89.13
2019-02-20T05:16:32.119Z,132.47
2019-02-20T05:18:59.584Z,121.80
2019-02-20T05:21:27.034Z,127.17
2019-02-20T05:23:54.716Z,258.23
2019-02-20T05:26:22.220Z,111.33
2019-02-20T05:28:49.663Z,111.13
2019-02-20T05:31:17.161Z,101.33
2019-02-20T05:33:44.655Z,64.73
2019-02-20T05:36:12.150Z,87.93
2019-02-20T05:38:39.630Z,85.80
2019-02-20T05:41:07.089Z,69.47
2019-02-20T05:43:34.547Z,83.83
2019-02-20T05:46:02.063Z,93.70
2019-02-20T05:48:29.526Z,56.60
2019-02-20T05:50:57.000Z,58.70
2019-02-20T05:53:24.505Z,84.37
2019-02-20T05:55:51.973Z,63.23
2019-02-20T05:58:19.426Z,57.37
2019-02-20T06:00:46.917Z,50.50
2019-02-20T06:03:14.394Z,79.07
2019-02-20T06:05:41.842Z,41.60
2019-02-20T06:08:09.582Z,44.63
2019-02-20T06:10:37.033Z,49.70
2019-02-20T06:13:04.488Z,53.07
2019-02-20T06:15:31.968Z,54.73
2019-02-20T06:17:59.443Z,130.63
2019-02-20T06:20:27.029Z,59.23
2019-02-20T06:22:54.554Z,58.53
2019-02-20T06:25:22.053Z,73.10
2019-02-20T06:27:49.484Z,51.83
2019-02-20T06:30:16.994Z,57.23
2019-02-20T06:32:44.450Z,52.40
2019-02-20T06:35:11.939Z,55.83
2019-02-20T06:37:39.406Z,55.17
2019-02-20T06:40:07.346Z,67.93
2019-02-20T06:42:34.841Z,120.87
2019-02-20T06:45:02.484Z,115.93
2019-02-20T06:47:30.001Z,104.07
2019-02-20T06:49:57.509Z,85.83
2019-02-20T06:52:25.038Z,69.37
2019-02-20T06:54:54.231Z,77.97
2019-02-20T06:57:21.720Z,77.53
2019-02-20T06:59:49.212Z,90.90
2019-02-20T07:02:16.687Z,77.60
2019-02-20T07:05:21.892Z,78.63
2019-02-20T07:08:31.134Z,71.60
2019-02-20T07:11:37.638Z,88.13
2019-02-20T07:14:36.103Z,85.73
2019-02-20T07:17:44.495Z,90.07
2019-02-20T07:20:49.937Z,92.63
2019-02-20T07:23:47.570Z,93.87
2019-02-20T07:27:00.194Z,110.53
2019-02-20T07:30:01.909Z,113.43
2019-02-20T07:32:30.113Z,132.03
2019-02-20T07:34:57.563Z,258.97
2019-02-20T07:37:25.011Z,169.23
2019-02-20T07:39:52.520Z,141.30
2019-02-20T07:42:19.992Z,142.43
2019-02-20T07:44:47.469Z,172.53
2019-02-20T07:47:14.974Z,146.80
2019-02-20T07:49:44.754Z,185.63
2019-02-20T07:52:12.406Z,178.87
2019-02-20T07:54:39.889Z,178.27
2019-02-20T07:57:07.433Z,152.33
2019-02-20T07:59:34.892Z,176.13
2019-02-20T08:02:02.405Z,169.13
2019-02-20T08:04:29.891Z,150.80
2019-02-20T08:06:57.400Z,162.07
2019-02-20T08:09:24.856Z,133.10
2019-02-20T08:11:52.338Z,98.20
2019-02-20T08:14:19.820Z,91.87
2019-02-20T08:16:52.373Z,95.17
2019-02-20T08:19:16.664Z,97.73
2019-02-20T08:21:44.077Z,112.33
2019-02-20T08:24:11.538Z,104.17
2019-02-20T08:26:39.039Z,106.77
2019-02-20T08:29:06.535Z,123.83
2019-02-20T08:31:34.020Z,126.10
2019-02-20T08:34:01.489Z,128.37
2019-02-20T08:36:28.998Z,94.87
2019-02-20T08:38:56.501Z,99.90
2019-02-20T08:41:23.965Z,104.80
2019-02-20T08:43:51.474Z,133.40
2019-02-20T08:46:18.952Z,111.60
2019-02-20T08:48:46.457Z,96.50
2019-02-20T08:51:13.919Z,114.33
2019-02-20T08:53:41.393Z,97.13
2019-02-20T08:56:08.888Z,99.53
2019-02-20T08:58:36.359Z,85.53
2019-02-20T09:01:03.873Z,83.30
2019-02-20T09:03:31.355Z,117.70
2019-02-20T09:05:58.842Z,98.03
2019-02-20T09:08:26.294Z,174.13
2019-02-20T09:10:53.794Z,105.57
2019-02-20T09:13:21.261Z,69.83
2019-02-20T09:15:48.735Z,72.73
2019-02-20T09:18:16.283Z,82.83
2019-02-20T09:20:43.797Z,77.43
2019-02-20T09:23:11.303Z,90.33
2019-02-20T09:25:41.461Z,87.57
2019-02-20T09:28:08.102Z,70.53
2019-02-20T09:30:35.578Z,64.23
2019-02-20T09:33:03.054Z,68.03
2019-02-20T09:35:30.515Z,107.90
2019-02-20T09:37:57.998Z,61.10
2019-02-20T09:40:25.490Z,49.87
2019-02-20T09:42:53.005Z,53.67
2019-02-20T09:45:20.668Z,43.17
2019-02-20T09:47:48.169Z,69.70
2019-02-20T09:50:15.652Z,70.47
2019-02-20T09:52:51.685Z,44.17
2019-02-20T09:55:12.453Z,35.60
2019-02-20T09:57:39.927Z,34.73
2019-02-20T10:00:10.587Z,37.80
2019-02-20T10:02:38.114Z,54.27
2019-02-20T10:05:06.368Z,34.40
2019-02-20T10:07:33.857Z,29.60
2019-02-20T10:10:01.328Z,28.40
2019-02-20T10:12:29.063Z,25.63
2019-02-20T10:14:56.554Z,24.03
2019-02-20T10:17:24.081Z,23.57
2019-02-20T10:19:51.584Z,26.87
2019-02-20T10:22:19.040Z,26.53
2019-02-20T10:24:46.570Z,29.67
2019-02-20T10:27:14.044Z,32.13
2019-02-20T10:29:41.583Z,26.33
2019-02-20T10:32:09.048Z,30.03
2019-02-20T10:34:36.521Z,28.27
2019-02-20T10:37:04.028Z,26.27
2019-02-20T10:39:31.493Z,27.37
2019-02-20T10:41:58.990Z,27.60
2019-02-20T10:44:26.474Z,28.20
2019-02-20T10:46:53.998Z,29.87
2019-02-20T10:49:21.463Z,36.70
2019-02-20T10:51:48.974Z,29.87
2019-02-20T10:54:16.514Z,27.83
2019-02-20T10:56:43.981Z,28.33
2019-02-20T10:59:11.486Z,29.53
2019-02-20T11:01:39.040Z,30.47
2019-02-20T11:04:06.550Z,32.53
2019-02-20T11:06:34.104Z,32.93
2019-02-20T11:09:01.607Z,33.83
2019-02-20T11:11:29.077Z,30.70
2019-02-20T11:13:56.603Z,30.67
2019-02-20T11:16:24.129Z,32.57
2019-02-20T11:18:51.579Z,31.60
2019-02-20T11:21:19.107Z,33.67
2019-02-20T11:23:46.683Z,29.77
2019-02-20T11:26:18.299Z,26.60
2019-02-20T11:28:43.899Z,22.03
2019-02-20T11:31:11.365Z,23.67
2019-02-20T11:33:38.871Z,24.90
2019-02-20T11:36:06.329Z,23.00
2019-02-20T11:38:33.838Z,21.83
2019-02-20T11:41:01.346Z,18.97
2019-02-20T11:43:28.883Z,18.53
2019-02-20T11:45:56.429Z,18.07
2019-02-20T11:48:23.940Z,18.57
2019-02-20T11:50:51.447Z,19.00
2019-02-20T11:53:18.987Z,16.30
2019-02-20T11:55:46.517Z,17.40
2019-02-20T11:58:14.011Z,17.13
2019-02-20T12:00:41.465Z,18.33
2019-02-20T12:03:08.967Z,20.40
2019-02-20T12:05:36.451Z,19.43
2019-02-20T12:08:03.969Z,15.57
2019-02-20T12:10:31.462Z,18.53
2019-02-20T12:12:58.919Z,15.43
2019-02-20T12:15:26.430Z,23.17
2019-02-20T12:17:53.866Z,19.23
2019-02-20T12:20:21.419Z,16.60
2019-02-20T12:22:48.910Z,20.27
2019-02-20T12:25:16.391Z,19.50
2019-02-20T12:27:43.866Z,22.17
2019-02-20T12:30:11.431Z,21.33
2019-02-20T12:32:38.916Z,20.90
2019-02-20T12:35:06.586Z,17.40
2019-02-20T12:37:34.099Z,24.00
2019-02-20T12:40:01.562Z,20.80
2019-02-20T12:42:29.047Z,18.23
2019-02-20T12:44:58.501Z,18.13
2019-02-20T12:47:25.846Z,19.63
2019-02-20T12:49:53.369Z,26.47
2019-02-20T12:52:20.929Z,21.10
2019-02-20T12:54:48.372Z,20.70
2019-02-20T12:57:15.865Z,21.63
2019-02-20T12:59:43.392Z,20.43
2019-02-20T13:02:11.026Z,18.57
2019-02-20T13:04:38.641Z,19.17
2019-02-20T13:07:06.269Z,23.37
2019-02-20T13:09:33.987Z,20.20
2019-02-20T13:12:01.493Z,18.97
2019-02-20T13:14:29.038Z,17.60
2019-02-20T13:16:56.523Z,20.00
2019-02-20T13:19:24.056Z,17.87
2019-02-20T13:21:51.513Z,15.27
2019-02-20T13:24:19.032Z,16.70
2019-02-20T13:26:52.906Z,15.53
2019-02-20T13:29:15.845Z,19.57
2019-02-20T13:31:43.338Z,16.90
2019-02-20T13:34:10.829Z,16.73
2019-02-20T13:36:39.199Z,20.83
2019-02-20T13:39:06.744Z,17.40
2019-02-20T13:41:34.234Z,13.57
2019-02-20T13:44:01.783Z,12.77
2019-02-20T13:46:29.390Z,14.20
2019-02-20T13:48:56.881Z,11.20
2019-02-20T13:51:24.439Z,11.40
2019-02-20T13:53:52.280Z,14.47
2019-02-20T13:56:19.969Z,13.07
2019-02-20T13:58:47.465Z,11.30
2019-02-20T14:01:14.958Z,15.73
2019-02-20T14:03:42.466Z,11.57
2019-02-20T14:06:09.931Z,13.43
2019-02-20T14:08:37.439Z,11.37
2019-02-20T14:11:05.335Z,12.30
2019-02-20T14:13:32.832Z,10.80
2019-02-20T14:16:00.351Z,10.83
2019-02-20T14:18:27.826Z,12.83
2019-02-20T14:20:55.558Z,12.60
2019-02-20T14:23:23.051Z,12.20
2019-02-20T14:25:50.553Z,10.97
2019-02-20T14:28:18.065Z,10.27
2019-02-20T14:30:45.635Z,12.03
2019-02-20T14:33:13.106Z,13.57
2019-02-20T14:35:40.568Z,11.40
2019-02-20T14:38:08.113Z,10.40
2019-02-20T14:40:35.584Z,11.47
2019-02-20T14:43:03.297Z,10.70
2019-02-20T14:45:30.766Z,11.07
2019-02-20T14:47:58.772Z,8.77
2019-02-20T14:50:26.343Z,11.63
2019-02-20T14:52:53.858Z,11.67
2019-02-20T14:55:21.315Z,10.63
2019-02-20T14:57:48.835Z,11.87
2019-02-20T15:00:16.332Z,7.73
2019-02-20T15:02:43.839Z,10.93
2019-02-20T15:05:12.090Z,11.77
2019-02-20T15:07:39.851Z,8.87
2019-02-20T15:10:07.324Z,7.13
2019-02-20T15:12:34.848Z,8.77
2019-02-20T15:15:10.339Z,9.83
2019-02-20T15:17:31.685Z,11.00
2019-02-20T15:19:59.144Z,9.23
2019-02-20T15:22:26.676Z,10.37
2019-02-20T15:24:54.344Z,12.30
2019-02-20T15:27:28.501Z,10.90
2019-02-20T15:29:51.194Z,12.47
2019-02-20T15:32:18.673Z,10.70
2019-02-20T15:34:46.144Z,13.13
2019-02-20T15:37:13.696Z,10.47
2019-02-20T15:39:41.152Z,9.87
2019-02-20T15:42:08.957Z,14.13
2019-02-20T15:44:36.412Z,11.30
2019-02-20T15:47:03.985Z,12.03
2019-02-20T15:49:31.558Z,16.07
2019-02-20T15:51:59.003Z,10.37
2019-02-20T15:54:26.523Z,9.83
2019-02-20T15:56:54.000Z,8.97
2019-02-20T15:59:21.477Z,9.27
2019-02-20T16:01:49.249Z,9.67
2019-02-20T16:04:16.703Z,11.03
2019-02-20T16:06:44.519Z,10.83
2019-02-20T16:09:12.022Z,11.43
2019-02-20T16:11:39.478Z,11.40
2019-02-20T16:14:07.240Z,11.33
2019-02-20T16:16:35.089Z,12.27
2019-02-20T16:19:03.005Z,8.20
2019-02-20T16:21:30.502Z,8.60
2019-02-20T16:23:58.299Z,9.17
2019-02-20T16:26:25.797Z,11.27
2019-02-20T16:28:53.291Z,9.23
2019-02-20T16:31:20.799Z,7.67
2019-02-20T16:33:48.400Z,9.80
2019-02-20T16:36:15.946Z,9.93
2019-02-20T16:38:43.443Z,8.53
2019-02-20T16:41:10.964Z,9.97
2019-02-20T16:43:38.497Z,11.03
2019-02-20T16:46:06.032Z,8.60
2019-02-20T16:48:33.869Z,9.63
2019-02-20T16:51:01.361Z,10.53
2019-02-20T16:53:28.817Z,9.60
2019-02-20T16:55:56.728Z,11.67
2019-02-20T16:58:24.241Z,9.50
2019-02-20T17:00:51.749Z,9.10
2019-02-20T17:03:19.277Z,11.00
2019-02-20T17:05:48.514Z,9.27
2019-02-20T17:08:16.065Z,9.50
2019-02-20T17:10:43.589Z,11.30
2019-02-20T17:13:11.392Z,9.53
2019-02-20T17:15:38.882Z,12.83
2019-02-20T17:18:06.428Z,12.73
2019-02-20T17:20:33.893Z,13.37
2019-02-20T17:23:01.423Z,11.80
2019-02-20T17:25:28.941Z,11.77
2019-02-20T17:28:05.287Z,13.03
2019-02-20T17:30:25.741Z,14.97
2019-02-20T17:32:53.284Z,10.23
2019-02-20T17:35:20.787Z,11.07
2019-02-20T17:37:48.290Z,16.43
2019-02-20T17:40:15.826Z,13.50
2019-02-20T17:42:43.321Z,11.63
2019-02-20T17:45:11.003Z,10.03
2019-02-20T17:47:38.468Z,11.93
2019-02-20T17:50:09.201Z,11.17
2019-02-20T17:52:36.694Z,15.10
2019-02-20T17:55:04.532Z,12.10
2019-02-20T17:57:32.047Z,17.23
2019-02-20T17:59:59.749Z,17.17
2019-02-20T18:02:27.228Z,16.83
2019-02-20T18:04:54.703Z,15.30
2019-02-20T18:07:22.235Z,14.87
2019-02-20T18:09:49.742Z,18.07
2019-02-20T18:12:17.229Z,17.23
2019-02-20T18:14:44.717Z,21.80
2019-02-20T18:17:12.243Z,15.77
2019-02-20T18:19:39.698Z,19.27
2019-02-20T18:22:07.173Z,16.40
2019-02-20T18:24:34.708Z,16.33
2019-02-20T18:27:02.208Z,26.63
2019-02-20T18:29:29.672Z,17.53
2019-02-20T18:31:57.155Z,22.33
2019-02-20T18:34:24.693Z,27.23
2019-02-20T18:36:52.185Z,38.83
2019-02-20T18:39:19.692Z,21.63
2019-02-20T18:41:47.202Z,19.23
2019-02-20T18:44:14.723Z,17.93
2019-02-20T18:46:42.258Z,20.33
2019-02-20T18:49:09.769Z,20.43
2019-02-20T18:51:37.262Z,19.33
2019-02-20T18:54:04.819Z,18.83
2019-02-20T18:56:34.025Z,16.00
2019-02-20T18:59:01.635Z,16.80
2019-02-20T19:01:29.106Z,21.40
2019-02-20T19:03:56.823Z,18.80
2019-02-20T19:06:24.496Z,21.43
2019-02-20T19:08:56.850Z,19.13
2019-02-20T19:11:51.051Z,18.23
2019-02-20T19:14:49.711Z,18.97
2019-02-20T19:18:11.411Z,22.13
2019-02-20T19:21:23.020Z,19.23
2019-02-20T19:25:03.209Z,20.90
2019-02-20T19:28:17.415Z,17.73
2019-02-20T19:31:40.839Z,19.07
2019-02-20T19:34:40.215Z,19.97
2019-02-20T19:37:38.029Z,18.77
2019-02-20T19:40:43.401Z,15.60
2019-02-20T19:43:51.981Z,16.70
2019-02-20T19:46:57.452Z,15.73
2019-02-20T19:50:13.146Z,15.40
2019-02-20T19:53:10.571Z,17.03
2019-02-20T19:56:25.913Z,19.77
2019-02-20T19:59:23.091Z,26.20
2019-02-20T20:02:07.468Z,23.80
2019-02-20T20:05:16.979Z,21.40
2019-02-20T20:08:14.069Z,16.53
2019-02-20T20:11:14.144Z,18.47
2019-02-20T20:14:21.941Z,20.37
2019-02-20T20:17:36.678Z,20.13
2019-02-20T20:20:12.836Z,14.80
2019-02-20T20:23:28.739Z,20.20
2019-02-20T20:26:20.181Z,21.57
2019-02-20T20:29:08.541Z,21.60
2019-02-20T20:31:55.262Z,24.10
2019-02-20T20:34:58.334Z,21.07
2019-02-20T20:37:46.201Z,17.90
2019-02-20T20:40:45.420Z,16.63
2019-02-20T20:43:56.372Z,20.63
2019-02-20T20:47:01.605Z,19.73
2019-02-20T20:50:08.172Z,21.07
2019-02-20T20:52:58.034Z,18.37
2019-02-20T20:56:05.037Z,25.83
2019-02-20T20:59:19.122Z,22.60
2019-02-20T21:02:21.142Z,26.73
2019-02-20T21:05:30.786Z,27.63
2019-02-20T21:08:51.871Z,27.30
2019-02-20T21:12:28.412Z,18.83
2019-02-20T21:15:26.625Z,17.90
2019-02-20T21:18:31.754Z,20.50
2019-02-20T21:21:13.098Z,21.53
2019-02-20T21:24:17.415Z,21.10
2019-02-20T21:27:51.411Z,19.43
2019-02-20T21:30:57.444Z,22.70
2019-02-20T21:34:09.165Z,20.30
2019-02-20T21:37:05.063Z,20.37
2019-02-20T21:39:57.801Z,17.20
2019-02-20T21:43:19.237Z,25.23
2019-02-20T21:46:53.119Z,20.20
2019-02-20T21:49:55.839Z,24.13
2019-02-20T21:52:49.091Z,23.67
2019-02-20T21:55:55.523Z,27.83
2019-02-20T21:58:37.553Z,22.60
2019-02-20T22:01:42.956Z,24.97
2019-02-20T22:04:40.143Z,21.90
2019-02-20T22:07:57.833Z,22.30
2019-02-20T22:10:47.956Z,21.27
2019-02-20T22:13:45.909Z,24.10
2019-02-20T22:16:53.078Z,21.00
2019-02-20T22:20:06.362Z,24.57
2019-02-20T22:23:27.904Z,21.47
2019-02-20T22:26:26.012Z,21.23
2019-02-20T22:29:50.039Z,21.93
2019-02-20T22:32:46.143Z,17.90
2019-02-20T22:36:06.901Z,21.60
2019-02-20T22:38:55.942Z,23.17
2019-02-20T22:41:55.928Z,22.20
2019-02-20T22:45:16.945Z,23.75
2019-02-20T22:48:23.641Z,26.40
2019-02-20T22:51:52.973Z,22.43
2019-02-20T22:54:51.448Z,23.50
2019-02-20T22:57:38.860Z,21.30
2019-02-20T23:00:59.025Z,24.03
2019-02-20T23:04:20.069Z,25.27
2019-02-20T23:07:09.867Z,18.97
2019-02-20T23:10:27.513Z,20.43
2019-02-20T23:13:32.535Z,20.73
2019-02-20T23:16:00.515Z,23.87
2019-02-20T23:18:28.040Z,23.03
2019-02-20T23:20:55.710Z,22.00
2019-02-20T23:23:23.161Z,26.27
2019-02-20T23:25:50.841Z,25.73
2019-02-20T23:28:18.326Z,25.17
2019-02-20T23:30:45.786Z,24.77
2019-02-20T23:33:13.305Z,23.10
2019-02-20T23:35:40.802Z,21.37
2019-02-20T23:38:08.320Z,22.00
2019-02-20T23:40:35.786Z,28.30
2019-02-20T23:43:03.278Z,25.03
2019-02-20T23:45:30.778Z,26.17
2019-02-20T23:47:58.298Z,30.40
2019-02-20T23:50:25.837Z,25.70
2019-02-20T23:52:53.381Z,27.73
2019-02-20T23:55:20.867Z,25.97
2019-02-20T23:57:48.346Z,25.20
